createdAt,value
2019-03-10T00:00:53.341Z,98151.71
2019-03-10T00:03:23.883Z,98155.64
2019-03-10T00:05:54.461Z,98148.98
2019-03-10T00:08:29.045Z,98134.48
2019-03-10T00:10:59.640Z,98139.22
2019-03-10T00:13:30.600Z,98144.81
2019-03-10T00:16:01.219Z,98148.28
2019-03-10T00:18:33.351Z,98143.05
2019-03-10T00:21:03.900Z,98152.38
2019-03-10T00:23:34.508Z,98144.36
2019-03-10T00:26:05.297Z,98140.78
2019-03-10T00:28:35.809Z,98118.94
2019-03-10T00:31:06.403Z,98125.14
2019-03-10T00:33:36.963Z,98120.58
2019-03-10T00:36:07.631Z,98117.97
2019-03-10T00:39:13.737Z,98122.58
2019-03-10T00:42:45.498Z,98118.34
2019-03-10T00:46:24.018Z,98125.19
2019-03-10T00:50:21.085Z,98118.83
2019-03-10T00:53:03.991Z,98118.87
2019-03-10T00:55:34.544Z,98107.36
2019-03-10T00:58:05.127Z,98108.05
2019-03-10T01:00:35.729Z,98104.47
2019-03-10T01:03:06.349Z,98096.63
2019-03-10T01:05:36.912Z,98079.89
2019-03-10T01:08:09.070Z,98072.06
2019-03-10T01:10:39.625Z,98056.27
2019-03-10T01:13:10.229Z,98054.14
2019-03-10T01:15:41.480Z,98042.64
2019-03-10T01:18:14.421Z,98040.02
2019-03-10T01:20:46.522Z,98028.27
2019-03-10T01:23:20.204Z,98032.19
2019-03-10T01:25:50.763Z,98024.41
2019-03-10T01:28:22.131Z,98023.09
2019-03-10T01:31:14.247Z,98017.11
2019-03-10T01:34:46.084Z,98005.84
2019-03-10T01:37:16.649Z,97993.66
2019-03-10T01:39:47.233Z,97976.56
2019-03-10T01:42:17.770Z,97962.20
2019-03-10T01:44:48.351Z,97943.48
2019-03-10T01:47:18.905Z,97930.92
2019-03-10T01:49:49.487Z,97915.31
2019-03-10T01:52:20.098Z,97905.94
2019-03-10T01:54:50.621Z,97887.34
2019-03-10T01:57:21.194Z,97886.73
2019-03-10T01:59:51.740Z,97876.78
2019-03-10T02:02:25.518Z,97863.91
2019-03-10T02:04:54.659Z,97837.80
2019-03-10T02:07:25.252Z,97841.92
2019-03-10T02:09:55.838Z,97836.92
2019-03-10T02:12:26.455Z,97836.86
2019-03-10T02:14:57.017Z,97835.72
2019-03-10T02:17:27.575Z,97840.89
2019-03-10T02:19:58.083Z,97840.89
2019-03-10T02:22:38.903Z,97836.60
2019-03-10T02:25:09.452Z,97839.59
2019-03-10T02:27:40.034Z,97839.91
2019-03-10T02:30:14.220Z,97844.63
2019-03-10T02:32:44.842Z,97855.56
2019-03-10T02:35:15.370Z,97860.09
2019-03-10T02:37:46.244Z,97851.11
2019-03-10T02:40:16.770Z,97844.09
2019-03-10T02:42:47.364Z,97835.56
2019-03-10T02:45:17.981Z,97837.20
2019-03-10T02:47:49.998Z,97823.66
2019-03-10T02:50:20.570Z,97808.28
2019-03-10T02:52:51.170Z,97814.86
2019-03-10T02:55:21.751Z,97803.12
2019-03-10T02:57:52.309Z,97798.27
2019-03-10T03:00:22.829Z,97786.73
2019-03-10T03:02:53.496Z,97777.16
2019-03-10T03:05:24.043Z,97759.07
2019-03-10T03:07:54.664Z,97747.39
2019-03-10T03:10:25.217Z,97737.27
2019-03-10T03:12:55.791Z,97726.84
2019-03-10T03:15:26.383Z,97715.27
2019-03-10T03:17:56.946Z,97700.86
2019-03-10T03:20:27.546Z,97699.94
2019-03-10T03:22:58.055Z,97699.13
2019-03-10T03:25:28.607Z,97678.95
2019-03-10T03:27:59.175Z,97663.41
2019-03-10T03:30:30.085Z,97660.80
2019-03-10T03:33:00.707Z,97648.78
2019-03-10T03:35:53.904Z,97640.64
2019-03-10T03:38:35.411Z,97622.37
2019-03-10T03:41:10.299Z,97625.30
2019-03-10T03:43:40.869Z,97613.56
2019-03-10T03:46:11.504Z,97609.02
2019-03-10T03:48:42.073Z,97598.59
2019-03-10T03:51:12.740Z,97588.16
2019-03-10T03:53:45.510Z,97588.96
2019-03-10T03:56:18.442Z,97581.95
2019-03-10T03:58:49.006Z,97576.09
2019-03-10T04:01:24.498Z,97565.06
2019-03-10T04:03:55.103Z,97548.00
2019-03-10T04:06:25.687Z,97547.50
2019-03-10T04:08:56.274Z,97544.69
2019-03-10T04:11:28.791Z,97532.14
2019-03-10T04:14:00.436Z,97524.63
2019-03-10T04:16:30.997Z,97513.88
2019-03-10T04:19:01.524Z,97510.99
2019-03-10T04:21:32.021Z,97505.45
2019-03-10T04:24:05.153Z,97503.52
2019-03-10T04:26:34.924Z,97474.05
2019-03-10T04:29:05.561Z,97461.13
2019-03-10T04:31:36.085Z,97452.48
2019-03-10T04:34:06.654Z,97426.52
2019-03-10T04:36:37.155Z,97436.95
2019-03-10T04:39:08.884Z,97429.93
2019-03-10T04:41:39.411Z,97431.23
2019-03-10T04:44:09.998Z,97429.83
2019-03-10T04:46:40.552Z,97421.69
2019-03-10T04:49:11.102Z,97416.58
2019-03-10T04:51:41.645Z,97405.37
2019-03-10T04:54:12.243Z,97401.22
2019-03-10T04:56:49.343Z,97407.84
2019-03-10T04:59:19.912Z,97399.52
2019-03-10T05:01:50.487Z,97393.63
2019-03-10T05:04:21.110Z,97392.74
2019-03-10T05:06:51.635Z,97384.53
2019-03-10T05:09:22.192Z,97376.39
2019-03-10T05:11:52.783Z,97371.27
2019-03-10T05:14:23.299Z,97361.25
2019-03-10T05:16:53.892Z,97343.41
2019-03-10T05:19:24.454Z,97348.63
2019-03-10T05:21:54.985Z,97341.92
2019-03-10T05:24:27.641Z,97344.32
2019-03-10T05:26:58.185Z,97331.39
2019-03-10T05:29:28.767Z,97322.64
2019-03-10T05:31:59.330Z,97323.45
2019-03-10T05:34:29.900Z,97313.33
2019-03-10T05:37:00.441Z,97299.16
2019-03-10T05:39:31.040Z,97299.06
2019-03-10T05:42:01.608Z,97297.27
2019-03-10T05:44:33.705Z,97291.24
2019-03-10T05:47:04.261Z,97279.22
2019-03-10T05:49:34.835Z,97282.82
2019-03-10T05:52:05.393Z,97277.30
2019-03-10T05:54:35.990Z,97271.77
2019-03-10T05:57:06.522Z,97270.46
2019-03-10T05:59:42.888Z,97261.64
2019-03-10T06:02:13.456Z,97263.57
2019-03-10T06:04:44.047Z,97252.20
2019-03-10T06:07:14.594Z,97241.59
2019-03-10T06:09:45.141Z,97241.09
2019-03-10T06:12:15.763Z,97239.88
2019-03-10T06:14:46.374Z,97239.88
2019-03-10T06:17:16.938Z,97231.06
2019-03-10T06:19:47.516Z,97225.84
2019-03-10T06:22:18.051Z,97219.82
2019-03-10T06:24:48.973Z,97207.59
2019-03-10T06:27:19.616Z,97208.39
2019-03-10T06:29:50.233Z,97214.02
2019-03-10T06:32:20.870Z,97208.58
2019-03-10T06:34:54.198Z,97211.50
2019-03-10T06:37:27.850Z,97209.20
2019-03-10T06:39:58.527Z,97204.80
2019-03-10T06:42:29.172Z,97197.55
2019-03-10T06:44:59.718Z,97190.84
2019-03-10T06:47:30.268Z,97181.19
2019-03-10T06:50:00.814Z,97176.36
2019-03-10T06:52:33.147Z,97170.64
2019-03-10T06:55:03.711Z,97161.81
2019-03-10T06:57:35.223Z,97160.11
2019-03-10T07:00:06.247Z,97162.92
2019-03-10T07:02:37.670Z,97171.73
2019-03-10T07:05:12.444Z,97158.89
2019-03-10T07:07:42.991Z,97155.16
2019-03-10T07:10:14.679Z,97150.02
2019-03-10T07:12:45.272Z,97149.11
2019-03-10T07:15:15.948Z,97145.48
2019-03-10T07:17:48.307Z,97140.65
2019-03-10T07:20:19.130Z,97138.23
2019-03-10T07:22:49.691Z,97127.55
2019-03-10T07:25:23.787Z,97128.77
2019-03-10T07:28:13.194Z,97128.66
2019-03-10T07:30:53.586Z,97124.44
2019-03-10T07:33:54.998Z,97118.06
2019-03-10T07:36:46.466Z,97114.42
2019-03-10T07:39:41.490Z,97124.11
2019-03-10T07:42:19.429Z,97125.80
2019-03-10T07:44:58.307Z,97114.03
2019-03-10T07:47:39.237Z,97118.84
2019-03-10T07:50:28.699Z,97119.30
2019-03-10T07:53:13.604Z,97117.75
2019-03-10T07:55:56.505Z,97107.45
2019-03-10T07:58:44.430Z,97108.12
2019-03-10T08:01:24.319Z,97105.84
2019-03-10T08:04:12.500Z,97097.14
2019-03-10T08:07:02.580Z,97099.13
2019-03-10T08:09:50.232Z,97100.20
2019-03-10T08:12:58.837Z,97099.88
2019-03-10T08:15:53.808Z,97092.70
2019-03-10T08:18:50.086Z,97102.95
2019-03-10T08:21:30.696Z,97093.90
2019-03-10T08:24:19.672Z,97090.84
2019-03-10T08:26:56.524Z,97086.12
2019-03-10T08:29:40.225Z,97077.33
2019-03-10T08:32:32.071Z,97085.48
2019-03-10T08:35:27.618Z,97089.98
2019-03-10T08:38:32.318Z,97095.39
2019-03-10T08:41:20.060Z,97085.08
2019-03-10T08:47:07.999Z,97084.71
2019-03-10T08:49:57.459Z,97080.34
2019-03-10T08:52:53.106Z,97081.15
2019-03-10T08:55:30.327Z,97088.56
2019-03-10T08:58:28.659Z,97076.08
2019-03-10T09:01:27.152Z,97066.06
2019-03-10T09:04:15.026Z,97069.55
2019-03-10T09:07:10.384Z,97070.80
2019-03-10T09:09:55.967Z,97067.44
2019-03-10T09:12:40.456Z,97062.70
2019-03-10T09:15:21.433Z,97047.14
2019-03-10T09:18:23.264Z,97047.58
2019-03-10T09:21:12.845Z,97062.56
2019-03-10T09:23:57.250Z,97059.20
2019-03-10T09:26:58.633Z,97060.30
2019-03-10T09:29:53.974Z,97057.54
2019-03-10T09:32:46.477Z,97075.44
2019-03-10T09:35:24.416Z,97061.53
2019-03-10T09:38:07.453Z,97071.57
2019-03-10T09:40:49.347Z,97102.14
2019-03-10T09:43:50.823Z,97092.97
2019-03-10T09:46:40.274Z,97088.03
2019-03-10T09:49:28.227Z,97083.58
2019-03-10T09:52:17.704Z,97094.43
2019-03-10T10:04:19.765Z,97103.98
2019-03-10T10:11:07.650Z,97107.97
2019-03-10T10:16:40.007Z,97109.78
2019-03-10T10:19:27.002Z,97109.86
2019-03-10T10:22:14.027Z,97128.55
2019-03-10T10:25:06.548Z,97122.94
2019-03-10T10:27:58.859Z,97117.47
2019-03-10T10:30:45.583Z,97104.37
2019-03-10T10:33:21.657Z,97085.66
2019-03-10T10:36:30.120Z,97083.67
2019-03-10T10:39:36.216Z,97083.91
2019-03-10T10:42:38.937Z,97073.66
2019-03-10T10:45:31.612Z,97073.55
2019-03-10T10:48:20.120Z,97061.91
2019-03-10T10:51:15.836Z,97040.52
2019-03-10T10:54:08.333Z,97037.66
2019-03-10T10:56:56.591Z,97033.44
2019-03-10T10:59:46.733Z,97048.50
2019-03-10T11:02:48.032Z,97048.00
2019-03-10T11:05:50.597Z,97055.98
2019-03-10T11:08:42.535Z,97077.55
2019-03-10T11:11:30.859Z,97076.14
2019-03-10T11:14:18.929Z,97077.11
2019-03-10T11:17:09.861Z,97076.69
2019-03-10T11:19:57.768Z,97076.08
2019-03-10T11:22:56.378Z,97069.17
2019-03-10T11:25:42.025Z,97061.81
2019-03-10T11:28:30.026Z,97051.86
2019-03-10T11:31:23.740Z,97064.45
2019-03-10T11:34:13.197Z,97050.16
2019-03-10T11:37:08.601Z,97046.45
2019-03-10T11:40:01.469Z,97053.52
2019-03-10T11:43:03.099Z,97067.90
2019-03-10T11:45:52.580Z,97059.44
2019-03-10T11:48:42.020Z,97064.23
2019-03-10T11:51:37.715Z,97075.23
2019-03-10T11:54:17.314Z,97047.05
2019-03-10T11:57:25.499Z,97066.55
2019-03-10T12:00:20.315Z,97060.56
2019-03-10T12:03:02.015Z,97079.16
2019-03-10T12:05:38.319Z,97060.86
2019-03-10T12:08:18.267Z,97065.66
2019-03-10T12:10:48.850Z,97067.38
2019-03-10T12:13:19.775Z,97051.79
2019-03-10T12:15:50.350Z,97057.89
2019-03-10T12:18:21.065Z,97061.44
2019-03-10T12:20:51.824Z,97072.36
2019-03-10T12:23:22.424Z,97063.03
2019-03-10T12:25:54.076Z,97086.78
2019-03-10T12:28:24.713Z,97060.30
2019-03-10T12:30:55.227Z,97059.84
2019-03-10T12:33:27.348Z,97059.63
2019-03-10T12:35:58.013Z,97082.74
2019-03-10T12:38:28.679Z,97056.39
2019-03-10T12:40:59.403Z,97055.45
2019-03-10T12:43:30.008Z,97078.83
2019-03-10T12:46:00.561Z,97087.35
2019-03-10T12:48:31.248Z,97043.06
2019-03-10T12:51:01.872Z,97084.45
2019-03-10T12:53:32.468Z,97106.05
2019-03-10T12:56:03.028Z,97078.36
2019-03-10T12:58:34.614Z,97071.84
2019-03-10T13:01:06.520Z,97102.73
2019-03-10T13:03:37.559Z,97115.06
2019-03-10T13:06:08.330Z,97107.31
2019-03-10T13:08:41.820Z,97115.63
2019-03-10T13:11:13.351Z,97122.03
2019-03-10T13:13:44.046Z,97120.16
2019-03-10T13:16:14.828Z,97137.96
2019-03-10T13:18:45.454Z,97127.75
2019-03-10T13:21:18.320Z,97156.25
2019-03-10T13:23:48.980Z,97147.78
2019-03-10T13:26:19.559Z,97169.59
2019-03-10T13:28:50.199Z,97163.53
2019-03-10T13:31:20.731Z,97183.83
2019-03-10T13:33:51.399Z,97172.56
2019-03-10T13:36:22.025Z,97180.05
2019-03-10T13:38:52.553Z,97201.14
2019-03-10T13:41:27.037Z,97186.27
2019-03-10T13:43:57.579Z,97212.13
2019-03-10T13:46:28.251Z,97201.87
2019-03-10T13:48:58.793Z,97224.27
2019-03-10T13:51:32.429Z,97220.87
2019-03-10T13:54:02.977Z,97257.88
2019-03-10T13:56:36.004Z,97224.47
2019-03-10T13:59:06.537Z,97264.90
2019-03-10T14:01:37.213Z,97241.34
2019-03-10T14:04:07.844Z,97231.52
2019-03-10T14:06:38.467Z,97261.56
2019-03-10T14:09:10.382Z,97236.38
2019-03-10T14:11:41.041Z,97237.49
2019-03-10T14:14:11.567Z,97282.00
2019-03-10T14:16:42.207Z,97271.77
2019-03-10T14:19:12.729Z,97290.59
2019-03-10T14:21:43.369Z,97283.44
2019-03-10T14:24:15.367Z,97276.53
2019-03-10T14:26:45.949Z,97285.91
2019-03-10T14:29:16.519Z,97338.84
2019-03-10T14:31:49.962Z,97315.80
2019-03-10T14:34:20.544Z,97338.19
2019-03-10T14:36:51.422Z,97332.73
2019-03-10T14:39:21.982Z,97322.74
2019-03-10T14:41:52.674Z,97343.23
2019-03-10T14:44:26.146Z,97307.48
2019-03-10T14:46:56.741Z,97310.13
2019-03-10T14:49:27.327Z,97324.71
2019-03-10T14:51:57.955Z,97353.59
2019-03-10T14:54:28.674Z,97342.23
2019-03-10T14:56:59.272Z,97348.50
2019-03-10T14:59:29.949Z,97373.13
2019-03-10T15:02:01.528Z,97396.88
2019-03-10T15:04:32.117Z,97387.46
2019-03-10T15:07:03.337Z,97312.75
2019-03-10T15:09:34.035Z,97383.03
2019-03-10T15:12:04.692Z,97381.84
2019-03-10T15:14:35.226Z,97394.23
2019-03-10T15:17:05.863Z,97398.61
2019-03-10T15:19:37.556Z,97387.97
2019-03-10T15:22:08.314Z,97398.00
2019-03-10T15:24:38.918Z,97381.08
2019-03-10T15:27:09.548Z,97456.00
2019-03-10T15:29:40.113Z,97422.78
2019-03-10T15:32:10.764Z,97443.59
2019-03-10T15:34:41.312Z,97441.57
2019-03-10T15:37:11.943Z,97425.36
2019-03-10T15:39:44.245Z,97410.91
2019-03-10T15:42:18.763Z,97448.48
2019-03-10T15:44:52.122Z,97445.13
2019-03-10T15:47:22.747Z,97445.64
2019-03-10T15:49:53.349Z,97453.78
2019-03-10T15:52:23.994Z,97438.70
2019-03-10T15:54:57.489Z,97473.40
2019-03-10T15:57:28.113Z,97455.42
2019-03-10T15:59:58.678Z,97481.01
2019-03-10T16:02:29.287Z,97487.31
2019-03-10T16:04:59.962Z,97490.89
2019-03-10T16:07:30.563Z,97512.05
2019-03-10T16:10:01.161Z,97464.84
2019-03-10T16:12:31.867Z,97537.71
2019-03-10T16:15:02.421Z,97525.78
2019-03-10T16:17:33.123Z,97542.82
2019-03-10T16:20:04.201Z,97521.83
2019-03-10T16:22:34.997Z,97583.83
2019-03-10T16:25:05.982Z,97527.06
2019-03-10T16:27:36.642Z,97526.25
2019-03-10T16:30:11.251Z,97530.00
2019-03-10T16:32:41.885Z,97524.95
2019-03-10T16:35:12.477Z,97531.89
2019-03-10T16:37:43.126Z,97545.23
2019-03-10T16:40:15.058Z,97564.83
2019-03-10T16:42:46.019Z,97568.66
2019-03-10T16:45:20.879Z,97592.83
2019-03-10T16:47:51.598Z,97582.93
2019-03-10T16:50:24.554Z,97594.02
2019-03-10T16:52:55.180Z,97593.33
2019-03-10T16:55:25.779Z,97604.59
2019-03-10T16:57:56.407Z,97609.22
2019-03-10T17:00:27.059Z,97605.77
2019-03-10T17:02:57.637Z,97624.63
2019-03-10T17:05:29.772Z,97621.66
2019-03-10T17:08:00.374Z,97620.75
2019-03-10T17:10:30.970Z,97645.48
2019-03-10T17:13:01.560Z,97645.45
2019-03-10T17:15:32.254Z,97676.58
2019-03-10T17:18:02.934Z,97661.96
2019-03-10T17:20:33.504Z,97670.67
2019-03-10T17:23:04.169Z,97672.97
2019-03-10T17:25:34.736Z,97677.76
2019-03-10T17:28:05.496Z,97681.50
2019-03-10T17:30:36.164Z,97705.55
2019-03-10T17:33:06.772Z,97702.35
2019-03-10T17:35:37.412Z,97730.63
2019-03-10T17:38:08.027Z,97734.05
2019-03-10T17:40:41.768Z,97742.87
2019-03-10T17:43:12.436Z,97741.12
2019-03-10T17:45:43.003Z,97749.19
2019-03-10T17:48:14.939Z,97753.42
2019-03-10T17:50:45.504Z,97772.36
2019-03-10T17:53:17.751Z,97771.87
2019-03-10T17:55:48.364Z,97777.81
2019-03-10T17:58:19.008Z,97784.42
2019-03-10T18:00:49.601Z,97818.11
2019-03-10T18:03:20.213Z,97824.20
2019-03-10T18:05:51.776Z,97847.24
2019-03-10T18:08:22.409Z,97829.47
2019-03-10T18:10:53.522Z,97847.53
2019-03-10T18:13:24.161Z,97849.08
2019-03-10T18:15:54.711Z,97853.96
2019-03-10T18:18:25.387Z,97856.69
2019-03-10T18:20:55.985Z,97879.23
2019-03-10T18:23:26.581Z,97867.86
2019-03-10T18:25:57.165Z,97883.68
2019-03-10T18:28:30.213Z,97873.52
2019-03-10T18:31:02.053Z,97893.25
2019-03-10T18:33:32.668Z,97886.61
2019-03-10T18:36:03.292Z,97903.23
2019-03-10T18:38:34.156Z,97925.98
2019-03-10T18:41:04.778Z,97937.67
2019-03-10T18:43:40.213Z,97953.70
2019-03-10T18:46:10.934Z,97996.06
2019-03-10T18:48:42.086Z,98022.00
2019-03-10T18:51:15.819Z,98031.73
2019-03-10T18:53:46.725Z,98042.08
2019-03-10T18:56:17.997Z,98039.69
2019-03-10T18:58:48.684Z,98057.98
2019-03-10T19:01:19.410Z,98042.13
2019-03-10T19:03:50.047Z,98062.78
2019-03-10T19:06:20.627Z,98061.81
2019-03-10T19:08:51.250Z,98060.88
2019-03-10T19:11:21.901Z,98061.69
2019-03-10T19:13:54.603Z,98059.59
2019-03-10T19:16:25.171Z,98046.44
2019-03-10T19:19:05.086Z,98047.89
2019-03-10T19:21:35.685Z,98051.13
2019-03-10T19:24:06.305Z,98040.25
2019-03-10T19:26:36.934Z,98054.88
2019-03-10T19:29:07.609Z,98060.41
2019-03-10T19:31:38.155Z,98060.89
2019-03-10T19:34:09.828Z,98068.84
2019-03-10T19:36:43.881Z,98077.93
2019-03-10T19:39:14.572Z,98075.81
2019-03-10T19:41:45.150Z,98083.28
2019-03-10T19:44:15.950Z,98089.97
2019-03-10T19:46:46.637Z,98085.41
2019-03-10T19:49:17.417Z,98081.52
2019-03-10T19:51:53.883Z,98086.71
2019-03-10T19:54:24.656Z,98097.91
2019-03-10T19:56:55.261Z,98094.33
2019-03-10T19:59:25.898Z,98110.09
2019-03-10T20:01:57.167Z,98110.91
2019-03-10T20:04:27.797Z,98116.45
2019-03-10T20:06:58.408Z,98114.14
2019-03-10T20:09:29.040Z,98121.80
2019-03-10T20:11:59.617Z,98132.53
2019-03-10T20:14:30.217Z,98134.95
2019-03-10T20:17:00.786Z,98150.39
2019-03-10T20:19:31.392Z,98144.52
2019-03-10T20:24:37.338Z,98152.31
2019-03-10T20:27:08.073Z,98161.91
2019-03-10T20:29:38.729Z,98165.50
2019-03-10T20:32:13.894Z,98171.66
2019-03-10T20:34:43.301Z,98176.04
2019-03-10T20:37:13.908Z,98174.73
2019-03-10T20:39:46.863Z,98172.14
2019-03-10T20:42:20.542Z,98167.12
2019-03-10T20:44:51.187Z,98167.47
2019-03-10T20:47:24.523Z,98175.75
2019-03-10T20:49:54.928Z,98176.23
2019-03-10T20:52:25.623Z,98181.58
2019-03-10T20:58:44.008Z,98183.55
2019-03-10T21:05:14.190Z,98188.58
2019-03-10T21:11:31.998Z,98206.61
2019-03-10T21:17:49.590Z,98215.08
2019-03-10T21:27:55.637Z,98220.09
2019-03-10T21:34:15.209Z,98236.80
2019-03-10T21:40:51.516Z,98254.66
2019-03-10T21:47:09.797Z,98257.10
2019-03-10T21:53:28.032Z,98255.28
2019-03-10T21:59:53.542Z,98265.36
2019-03-10T22:06:26.257Z,98266.00
2019-03-10T22:12:56.758Z,98281.75
2019-03-10T22:19:27.025Z,98291.17
2019-03-10T22:22:51.902Z,98294.45
2019-03-10T22:29:12.948Z,98301.38
2019-03-10T22:35:34.386Z,98306.41
2019-03-10T22:41:28.042Z,98305.58
2019-03-10T22:47:45.974Z,98315.24
2019-03-10T22:54:04.188Z,98306.95
2019-03-10T23:00:26.631Z,98318.16
2019-03-10T23:06:44.324Z,98311.33
2019-03-10T23:13:02.780Z,98308.02
2019-03-10T23:19:20.640Z,98301.84
2019-03-10T23:29:26.005Z,98311.19
2019-03-10T23:35:56.462Z,98303.98
2019-03-10T23:41:50.657Z,98290.66
2019-03-10T23:48:20.722Z,98297.39
2019-03-10T23:54:51.294Z,98283.77
